Phoenix, Arizona
Traffic Map
Current Weather Conditions
Phoenix, Arizona
Broken Clouds
Broken Clouds
79°
Feels Like: 79°
Wind Chill: 79° Ceiling: 25000
Heat Index: 79° Visibility: 10mi
Dew Point: 37° Wind: 7mph
Humidity: 22% Direction: 350° (N)
Pressure: 29.86in Gusts: 0mph
Raw Report DataKPHX 270951Z 35006KT 10SM BKN250 26/03 A2986 RMK AO2 SLP093 T02610028
Traffic Incident Summary
Active as of:
Severity:
Category:
InformationThere was an issue retrieving the traffic information for this location. Please try a different location or try again shortly.
Advertisements
Track Severe Weather on mobile